LIPL/QBS METAR and TAF weather

Enter ICAO airport designator
Station Type Date Time Source
LIPL METAR 2019/10/21 01:55 UTC NOAA

LIPL 210155Z 07009KT 6000 FEW030 SCT045 18/15 Q1017


Station Type Date Time Source
LIPL Decoded METAR 2019/10/21 01:55 UTC NOAA

Brescia / Ghedi, Italy (LIPL) 45-25N 010-17E 97M
Oct 20, 2019 - 09:55 PM EDT / 2019.10.21 0155 UTC
Wind: from the ENE (070 degrees) at 10 MPH (9 KT):0
Visibility: 3 mile(s):0
Sky conditions: partly cloudy
Temperature: 64 F (18 C)
Dew Point: 59 F (15 C)
Relative Humidity: 82%
Pressure (altimeter): 30.03 in. Hg (1017 hPa)
ob: LIPL 210155Z 07009KT 6000 FEW030 SCT045 18/15 Q1017
cycle: 2

Station Type Date Time Source
LIPL TAF 2019/07/15 15:33 UTC NOAA

TAF TAF LIPL 151400Z 1515/1603 VRB03KT 9999 SCT040

Example: see airport list